Moku Pahu — WBWK — position and weather

sailwx.info

Track history (hours):
 
Tides and Currents Weather Stations Pressure Air Temp Water Temp Dewpoint Dewpoint Depression Visibility Wind Speed Wind Dir Waves Ship Positions

Moku Pahu

Owner: MATSON NAVIGATION, RALEIGH, NC. More information available from US FCC via Universal Licensing System and Coast Guard Vessel Documentation Center.

Last reported at 2014-Sep-21 08:20 UTC. Time now 2014-Oct-02 12:42 UTC.
Position N 37°07' W 124°05'.
Warning: this ship's position is 11 days out of date.

Type: Ship. MMSI: 366857000.

Date/timePositionNaut miles runAvg speedWind from/ knotsBaromVisibWave heightAir tempDewpointWater temp
2014-Sep-21 08:20N 37°07' W 124°05'911.7
2014-Sep-21 07:33N 37°12' W 123°55'1111.2
2014-Sep-21 06:34N 37°17' W 123°43'1111.4
2014-Sep-21 05:33N 37°22' W 123°30'1211.3
2014-Sep-21 04:29N 37°29' W 123°17'1011.4
2014-Sep-21 03:34N 37°33' W 123°06'1111.3
2014-Sep-21 02:33N 37°40' W 122°54'1110.9
2014-Sep-21 01:33N 37°46' W 122°42'1110.7
2014-Sep-21 00:33N 37°49' W 122°29'8 7.7
2014-Sep-20 23:33N 37°46' W 122°21'0 0.1
2014-Sep-20 22:32N 37°46' W 122°21'0 0.0
2014-Sep-20 21:32N 37°46' W 122°21'0 0.0
2014-Sep-20 20:33N 37°46' W 122°21'0 0.2
2014-Sep-20 19:28N 37°45' W 122°21'0 0.1
2014-Sep-20 18:31N 37°45' W 122°21'0 0.0
2014-Sep-20 17:32N 37°45' W 122°21'0 0.0
2014-Sep-20 16:32N 37°45' W 122°21'0 0.0
2014-Sep-20 15:33N 37°45' W 122°21'0 0.0
2014-Sep-20 14:31N 37°45' W 122°21'0 0.0
2014-Sep-20 13:31N 37°45' W 122°21'0 0.1
2014-Sep-20 12:32N 37°45' W 122°21'0 0.1
2014-Sep-20 11:33N 37°46' W 122°21'0 0.0
2014-Sep-20 10:33N 37°46' W 122°21'0 0.0
2014-Sep-20 09:31N 37°46' W 122°21'0 0.0
2014-Sep-20 08:32N 37°46' W 122°21'0 0.0
2014-Sep-20 07:32N 37°46' W 122°21'0 0.1
2014-Sep-20 06:33N 37°46' W 122°21'0 0.2
2014-Sep-20 05:31N 37°45' W 122°21'0 0.1
2014-Sep-20 04:31N 37°45' W 122°21'0 0.0
2014-Sep-20 03:32N 37°45' W 122°21'0 0.0
2014-Sep-20 02:33N 37°45' W 122°21'0 0.0
2014-Sep-20 01:33N 37°45' W 122°21'0 0.1
2014-Sep-20 00:34N 37°45' W 122°21'4 3.5
2014-Sep-19 23:34N 37°48' W 122°23'1111.3
2014-Sep-19 22:34N 37°60' W 122°25'1111.2
2014-Sep-19 21:33N 38°03' W 122°12'9 8.8
2014-Sep-19 20:31N 38°04' W 122°00'26 6.3
2014-Sep-19 16:28N 38°01' W 121°28'5 5.6
2014-Sep-19 15:32N 37°58' W 121°23'2 0.1
2014-Sep-17 15:33N 37°57' W 121°20'0 0.0
2014-Sep-17 14:29N 37°57' W 121°20'0 0.0
2014-Sep-17 13:33N 37°57' W 121°20'0 0.0
2014-Sep-17 12:32N 37°57' W 121°20'0 0.0
2014-Sep-17 11:33N 37°57' W 121°20'0 0.0
2014-Sep-17 10:33N 37°57' W 121°20'0 0.0
2014-Sep-17 09:33N 37°57' W 121°20'0 0.0
2014-Sep-17 08:33N 37°57' W 121°20'0 0.0
2014-Sep-17 07:33N 37°57' W 121°20'0 0.0
2014-Sep-17 06:18N 37°57' W 121°20'0 0.0
2014-Sep-17 05:28N 37°57' W 121°20'0 0.0
2014-Sep-17 03:22N 37°57' W 121°20'0 0.0
2014-Sep-15 16:33N 37°57' W 121°20'0 0.0
2014-Sep-15 15:18N 37°57' W 121°20'0 0.0
2014-Sep-15 14:33N 37°57' W 121°20'0 0.0
2014-Sep-15 13:33N 37°57' W 121°20'0 0.0
2014-Sep-15 12:33N 37°57' W 121°20'0 0.0
2014-Sep-15 11:33N 37°57' W 121°20'0 0.0
2014-Sep-15 10:32N 37°57' W 121°20'0 0.0
2014-Sep-15 09:33N 37°57' W 121°20'23 1.8
2014-Sep-14 20:33N 38°01' W 121°49'8 8.3
2014-Sep-14 19:33N 38°04' W 121°59'17 8.2
2014-Sep-14 17:33N 38°03' W 122°20'9 9.0
2014-Sep-14 16:33N 37°55' W 122°25'9 8.8
2014-Sep-14 15:33N 37°48' W 122°19'2 1.8
2014-Sep-14 14:33N 37°48' W 122°17'0 0.0
2014-Sep-14 13:32N 37°48' W 122°17'0 0.0
2014-Sep-14 12:33N 37°48' W 122°17'0 0.0
2014-Sep-14 11:34N 37°48' W 122°17'0 0.0
2014-Sep-14 10:31N 37°48' W 122°17'0 0.0
2014-Sep-14 09:32N 37°48' W 122°17'0 0.0
2014-Sep-14 08:33N 37°48' W 122°17'0 0.0
2014-Sep-14 07:33N 37°48' W 122°17'0 0.0
2014-Sep-14 06:31N 37°48' W 122°17'0 0.0
2014-Sep-14 05:32N 37°48' W 122°17'0 0.0
2014-Sep-14 04:32N 37°48' W 122°17'0 0.0
2014-Sep-14 03:33N 37°48' W 122°17'0 0.0
2014-Sep-14 02:34N 37°48' W 122°17'0 0.0
2014-Sep-14 01:31N 37°48' W 122°17'0 0.0
2014-Sep-13 21:31N 37°48' W 122°17'0 0.0
2014-Sep-13 20:32N 37°48' W 122°17'0 0.0
2014-Sep-13 19:32N 37°48' W 122°17'0 0.0
2014-Sep-13 18:33N 37°48' W 122°17'0 0.0
2014-Sep-13 17:31N 37°48' W 122°17'0 0.0
2014-Sep-13 16:28N 37°48' W 122°17'0 0.0
2014-Sep-13 15:32N 37°48' W 122°17'0 0.0
2014-Sep-13 14:33N 37°48' W 122°17'0 0.0
2014-Sep-13 13:33N 37°48' W 122°17'0 0.0
2014-Sep-13 12:31N 37°48' W 122°17'0 0.0
2014-Sep-13 11:32N 37°48' W 122°17'0 0.0
2014-Sep-13 10:32N 37°48' W 122°17'0 0.0
2014-Sep-13 09:33N 37°48' W 122°17'0 0.0
2014-Sep-13 08:34N 37°48' W 122°17'0 0.0
2014-Sep-13 07:31N 37°48' W 122°17'0 0.0
2014-Sep-13 06:32N 37°48' W 122°17'0 0.0
2014-Sep-13 05:33N 37°48' W 122°17'0 0.0
2014-Sep-13 04:33N 37°48' W 122°17'0 0.0
2014-Sep-13 03:31N 37°48' W 122°17'0 0.0
2014-Sep-13 02:31N 37°48' W 122°17'0 0.0
2014-Sep-13 01:32N 37°48' W 122°17'0 0.0
2014-Sep-13 00:33N 37°48' W 122°17'0 0.0
2014-Sep-12 23:33N 37°48' W 122°17'0 0.0
2014-Sep-12 22:31N 37°48' W 122°17'0 0.0
2014-Sep-12 21:32N 37°48' W 122°17'0 0.0
2014-Sep-12 20:29N 37°48' W 122°17'0 0.0
2014-Sep-12 19:33N 37°48' W 122°17'0 0.0
2014-Sep-12 18:33N 37°48' W 122°17'0 0.0
2014-Sep-12 17:31N 37°48' W 122°17'0 0.0
2014-Sep-12 16:31N 37°48' W 122°17'0 0.0
2014-Sep-12 15:31N 37°48' W 122°17'0 0.0
2014-Sep-12 14:32N 37°48' W 122°17'0 0.0
2014-Sep-12 13:33N 37°48' W 122°17'0 0.0
2014-Sep-12 12:33N 37°48' W 122°17'0 0.0
2014-Sep-12 11:31N 37°48' W 122°17'0 0.0
2014-Sep-12 10:32N 37°48' W 122°17'0 0.0
2014-Sep-12 09:32N 37°48' W 122°17'0 0.0
2014-Sep-12 08:33N 37°48' W 122°17'0 0.0
2014-Sep-12 07:33N 37°48' W 122°17'0 0.0
2014-Sep-12 06:31N 37°48' W 122°17'0 0.0
2014-Sep-12 05:32N 37°48' W 122°17'0 0.0
2014-Sep-12 04:32N 37°48' W 122°17'0 0.0
2014-Sep-12 03:33N 37°48' W 122°17'0 0.0
2014-Sep-12 02:31N 37°48' W 122°17'0 0.0
2014-Sep-12 01:31N 37°48' W 122°17'0 0.0
2014-Sep-12 00:32N 37°48' W 122°17'0 0.0
2014-Sep-11 23:33N 37°48' W 122°17'0 0.0
2014-Sep-11 22:33N 37°48' W 122°17'0 0.0
2014-Sep-11 21:31N 37°48' W 122°17'0 0.0
2014-Sep-11 20:32N 37°48' W 122°17'0 0.0
2014-Sep-11 19:32N 37°48' W 122°17'0 0.0
2014-Sep-11 18:33N 37°48' W 122°17'0 0.0
2014-Sep-11 17:30N 37°48' W 122°17'0 0.0
2014-Sep-11 16:31N 37°48' W 122°17'0 0.0
2014-Sep-11 15:31N 37°48' W 122°17'0 0.0
2014-Sep-11 14:32N 37°48' W 122°17'0 0.0
2014-Sep-11 13:33N 37°48' W 122°17'0 0.0
2014-Sep-11 12:33N 37°48' W 122°17'0 0.0
2014-Sep-11 11:31N 37°48' W 122°17'0 0.0
2014-Sep-11 10:31N 37°48' W 122°17'0 0.0
2014-Sep-11 09:32N 37°48' W 122°17'0 0.0
2014-Sep-11 08:33N 37°48' W 122°17'  
Track history (hours):
 
Tides and Currents Weather Stations Pressure Air Temp Water Temp Dewpoint Dewpoint Depression Visibility Wind Speed Wind Dir Waves Ship Positions

Moku Pahu

Owner: MATSON NAVIGATION, RALEIGH, NC. More information available from US FCC via Universal Licensing System and Coast Guard Vessel Documentation Center.

Last reported at 2014-Sep-21 08:20 UTC. Time now 2014-Oct-02 12:42 UTC.
Position N 37°07' W 124°05'.
Warning: this ship's position is 11 days out of date.

Type: Ship. MMSI: 366857000.

Date/timePositionNaut miles runAvg speedWind from/ knotsBaromVisibWave heightAir tempDewpointWater temp
2014-Sep-21 08:20N 37°07' W 124°05'911.7
2014-Sep-21 07:33N 37°12' W 123°55'1111.2
2014-Sep-21 06:34N 37°17' W 123°43'1111.4
2014-Sep-21 05:33N 37°22' W 123°30'1211.3
2014-Sep-21 04:29N 37°29' W 123°17'1011.4
2014-Sep-21 03:34N 37°33' W 123°06'1111.3
2014-Sep-21 02:33N 37°40' W 122°54'1110.9
2014-Sep-21 01:33N 37°46' W 122°42'1110.7
2014-Sep-21 00:33N 37°49' W 122°29'8 7.7
2014-Sep-20 23:33N 37°46' W 122°21'0 0.1
2014-Sep-20 22:32N 37°46' W 122°21'0 0.0
2014-Sep-20 21:32N 37°46' W 122°21'0 0.0
2014-Sep-20 20:33N 37°46' W 122°21'0 0.2
2014-Sep-20 19:28N 37°45' W 122°21'0 0.1
2014-Sep-20 18:31N 37°45' W 122°21'0 0.0
2014-Sep-20 17:32N 37°45' W 122°21'0 0.0
2014-Sep-20 16:32N 37°45' W 122°21'0 0.0
2014-Sep-20 15:33N 37°45' W 122°21'0 0.0
2014-Sep-20 14:31N 37°45' W 122°21'0 0.0
2014-Sep-20 13:31N 37°45' W 122°21'0 0.1
2014-Sep-20 12:32N 37°45' W 122°21'0 0.1
2014-Sep-20 11:33N 37°46' W 122°21'0 0.0
2014-Sep-20 10:33N 37°46' W 122°21'0 0.0
2014-Sep-20 09:31N 37°46' W 122°21'0 0.0
2014-Sep-20 08:32N 37°46' W 122°21'0 0.0
2014-Sep-20 07:32N 37°46' W 122°21'0 0.1
2014-Sep-20 06:33N 37°46' W 122°21'0 0.2
2014-Sep-20 05:31N 37°45' W 122°21'0 0.1
2014-Sep-20 04:31N 37°45' W 122°21'0 0.0
2014-Sep-20 03:32N 37°45' W 122°21'0 0.0
2014-Sep-20 02:33N 37°45' W 122°21'0 0.0
2014-Sep-20 01:33N 37°45' W 122°21'0 0.1
2014-Sep-20 00:34N 37°45' W 122°21'4 3.5
2014-Sep-19 23:34N 37°48' W 122°23'1111.3
2014-Sep-19 22:34N 37°60' W 122°25'1111.2
2014-Sep-19 21:33N 38°03' W 122°12'9 8.8
2014-Sep-19 20:31N 38°04' W 122°00'26 6.3
2014-Sep-19 16:28N 38°01' W 121°28'5 5.6
2014-Sep-19 15:32N 37°58' W 121°23'2 0.1
2014-Sep-17 15:33N 37°57' W 121°20'0 0.0
2014-Sep-17 14:29N 37°57' W 121°20'0 0.0
2014-Sep-17 13:33N 37°57' W 121°20'0 0.0
2014-Sep-17 12:32N 37°57' W 121°20'0 0.0
2014-Sep-17 11:33N 37°57' W 121°20'0 0.0
2014-Sep-17 10:33N 37°57' W 121°20'0 0.0
2014-Sep-17 09:33N 37°57' W 121°20'0 0.0
2014-Sep-17 08:33N 37°57' W 121°20'0 0.0
2014-Sep-17 07:33N 37°57' W 121°20'0 0.0
2014-Sep-17 06:18N 37°57' W 121°20'0 0.0
2014-Sep-17 05:28N 37°57' W 121°20'0 0.0
2014-Sep-17 03:22N 37°57' W 121°20'0 0.0
2014-Sep-15 16:33N 37°57' W 121°20'0 0.0
2014-Sep-15 15:18N 37°57' W 121°20'0 0.0
2014-Sep-15 14:33N 37°57' W 121°20'0 0.0
2014-Sep-15 13:33N 37°57' W 121°20'0 0.0
2014-Sep-15 12:33N 37°57' W 121°20'0 0.0
2014-Sep-15 11:33N 37°57' W 121°20'0 0.0
2014-Sep-15 10:32N 37°57' W 121°20'0 0.0
2014-Sep-15 09:33N 37°57' W 121°20'23 1.8
2014-Sep-14 20:33N 38°01' W 121°49'8 8.3
2014-Sep-14 19:33N 38°04' W 121°59'17 8.2
2014-Sep-14 17:33N 38°03' W 122°20'9 9.0
2014-Sep-14 16:33N 37°55' W 122°25'9 8.8
2014-Sep-14 15:33N 37°48' W 122°19'2 1.8
2014-Sep-14 14:33N 37°48' W 122°17'0 0.0
2014-Sep-14 13:32N 37°48' W 122°17'0 0.0
2014-Sep-14 12:33N 37°48' W 122°17'0 0.0
2014-Sep-14 11:34N 37°48' W 122°17'0 0.0
2014-Sep-14 10:31N 37°48' W 122°17'0 0.0
2014-Sep-14 09:32N 37°48' W 122°17'0 0.0
2014-Sep-14 08:33N 37°48' W 122°17'0 0.0
2014-Sep-14 07:33N 37°48' W 122°17'0 0.0
2014-Sep-14 06:31N 37°48' W 122°17'0 0.0
2014-Sep-14 05:32N 37°48' W 122°17'0 0.0
2014-Sep-14 04:32N 37°48' W 122°17'0 0.0
2014-Sep-14 03:33N 37°48' W 122°17'0 0.0
2014-Sep-14 02:34N 37°48' W 122°17'0 0.0
2014-Sep-14 01:31N 37°48' W 122°17'0 0.0
2014-Sep-13 21:31N 37°48' W 122°17'0 0.0
2014-Sep-13 20:32N 37°48' W 122°17'0 0.0
2014-Sep-13 19:32N 37°48' W 122°17'0 0.0
2014-Sep-13 18:33N 37°48' W 122°17'0 0.0
2014-Sep-13 17:31N 37°48' W 122°17'0 0.0
2014-Sep-13 16:28N 37°48' W 122°17'0 0.0
2014-Sep-13 15:32N 37°48' W 122°17'0 0.0
2014-Sep-13 14:33N 37°48' W 122°17'0 0.0
2014-Sep-13 13:33N 37°48' W 122°17'0 0.0
2014-Sep-13 12:31N 37°48' W 122°17'0 0.0
2014-Sep-13 11:32N 37°48' W 122°17'0 0.0
2014-Sep-13 10:32N 37°48' W 122°17'0 0.0
2014-Sep-13 09:33N 37°48' W 122°17'0 0.0
2014-Sep-13 08:34N 37°48' W 122°17'0 0.0
2014-Sep-13 07:31N 37°48' W 122°17'0 0.0
2014-Sep-13 06:32N 37°48' W 122°17'0 0.0
2014-Sep-13 05:33N 37°48' W 122°17'0 0.0
2014-Sep-13 04:33N 37°48' W 122°17'0 0.0
2014-Sep-13 03:31N 37°48' W 122°17'0 0.0
2014-Sep-13 02:31N 37°48' W 122°17'0 0.0
2014-Sep-13 01:32N 37°48' W 122°17'0 0.0
2014-Sep-13 00:33N 37°48' W 122°17'0 0.0
2014-Sep-12 23:33N 37°48' W 122°17'0 0.0
2014-Sep-12 22:31N 37°48' W 122°17'0 0.0
2014-Sep-12 21:32N 37°48' W 122°17'0 0.0
2014-Sep-12 20:29N 37°48' W 122°17'0 0.0
2014-Sep-12 19:33N 37°48' W 122°17'0 0.0
2014-Sep-12 18:33N 37°48' W 122°17'0 0.0
2014-Sep-12 17:31N 37°48' W 122°17'0 0.0
2014-Sep-12 16:31N 37°48' W 122°17'0 0.0
2014-Sep-12 15:31N 37°48' W 122°17'0 0.0
2014-Sep-12 14:32N 37°48' W 122°17'0 0.0
2014-Sep-12 13:33N 37°48' W 122°17'0 0.0
2014-Sep-12 12:33N 37°48' W 122°17'0 0.0
2014-Sep-12 11:31N 37°48' W 122°17'0 0.0
2014-Sep-12 10:32N 37°48' W 122°17'0 0.0
2014-Sep-12 09:32N 37°48' W 122°17'0 0.0
2014-Sep-12 08:33N 37°48' W 122°17'0 0.0
2014-Sep-12 07:33N 37°48' W 122°17'0 0.0
2014-Sep-12 06:31N 37°48' W 122°17'0 0.0
2014-Sep-12 05:32N 37°48' W 122°17'0 0.0
2014-Sep-12 04:32N 37°48' W 122°17'0 0.0
2014-Sep-12 03:33N 37°48' W 122°17'0 0.0
2014-Sep-12 02:31N 37°48' W 122°17'0 0.0
2014-Sep-12 01:31N 37°48' W 122°17'0 0.0
2014-Sep-12 00:32N 37°48' W 122°17'0 0.0
2014-Sep-11 23:33N 37°48' W 122°17'0 0.0
2014-Sep-11 22:33N 37°48' W 122°17'0 0.0
2014-Sep-11 21:31N 37°48' W 122°17'0 0.0
2014-Sep-11 20:32N 37°48' W 122°17'0 0.0
2014-Sep-11 19:32N 37°48' W 122°17'0 0.0
2014-Sep-11 18:33N 37°48' W 122°17'0 0.0
2014-Sep-11 17:30N 37°48' W 122°17'0 0.0
2014-Sep-11 16:31N 37°48' W 122°17'0 0.0
2014-Sep-11 15:31N 37°48' W 122°17'0 0.0
2014-Sep-11 14:32N 37°48' W 122°17'0 0.0
2014-Sep-11 13:33N 37°48' W 122°17'0 0.0
2014-Sep-11 12:33N 37°48' W 122°17'0 0.0
2014-Sep-11 11:31N 37°48' W 122°17'0 0.0
2014-Sep-11 10:31N 37°48' W 122°17'0 0.0
2014-Sep-11 09:32N 37°48' W 122°17'0 0.0
2014-Sep-11 08:33N 37°48' W 122°17'  

Dump ship's entire track history